• Join FlightAware (Why Join?)
  • Login
  • US Flag 
03:27PM EDT


 

Airport Tracker/Info


-or-


 

Live Flight TrackerFlight Track Log ✈ ASQ5941 ✈ 16-Apr-2013 ✈ KAVP - KORD

Flight Track Log - Related Links

Times and Time Zones

All times are in EDT time to prevent confusion due to time zone crossing. See the ASQ5941 flight status page for this flight to view local times or setup timezone preferences in your user account.

Time Position Orientation Groundspeed Altitude Reporting Facility
EDT Latitude Longitude Course Direction KTS MPH feet Rate Location/Type
05:01PM 41.2967 -75.8411 286° West 189 217 6,900  Level New York Center
05:02PM 41.3689 -75.8547 352° North 177 204 7,900 840 Climbing New York Center
05:03PM 41.4456 -75.8633 355° North 224 258 8,600 1,620 Climbing New York Center
05:04PM 41.5244 -75.8722 355° North 252 290 11,200 2,520 Climbing New York Center
05:05PM 41.5033 -76.0655 315° West  Level FlightAware Approximate
05:05PM 41.6083 -75.9061 343° North 296 341 13,800  Level New York Center
05:06PM 41.5767 -76.1518 306° West  Level FlightAware Approximate
05:06PM 41.6269 -75.9992 285° West 238 274 16,800  Level New York Center
05:07PM 41.6461 -76.0842 287° West 256 295 18,300 1,440 Climbing New York Center
05:09PM 41.6584 -76.2387 307° West  Level Estimated
05:10PM 41.7428 -76.4281 289° West 328 377 22,600  Level New York Center
05:12PM 41.7538 -76.5851 275° West  Level Estimated
05:13PM 41.8239 -76.7153 275° West 346 398 25,300  Level Cleveland Center
05:14PM 41.8572 -76.8386 290° West 385 443 26,800 1,500 Climbing Cleveland Center
05:15PM 41.8906 -76.9622 290° West 375 432 28,400 1,680 Climbing Cleveland Center
05:16PM 41.7259 -77.1411 289° West  Level Estimated
05:16PM 41.9233 -77.0833 290° West 362 417 30,200  Level Cleveland Center
05:17PM 41.9561 -77.2017 290° West 349 402 31,900 900 Climbing Cleveland Center
05:18PM 41.9889 -77.3256 290° West 349 402 32,000 300 Climbing Cleveland Center
05:19PM 42.0261 -77.4608 290° West 365 420 32,600 900 Climbing Cleveland Center
05:20PM 42.0539 -77.5656 290° West 371 427 33,800 1,260 Climbing Cleveland Center
05:21PM 42.0908 -77.7067 289° West 371 427 35,200 1,080 Climbing Cleveland Center
05:22PM 42.1231 -77.8339 289° West 371 427 36,000 360 Climbing Cleveland Center
05:23PM 42.1575 -77.9642 290° West 371 427 36,000  Level Cleveland Center
05:24PM 42.1936 -78.0972 290° West 371 427 36,000  Level Cleveland Center
05:25PM 42.2278 -78.2333 289° West 376 433 36,000  Level Cleveland Center
05:26PM 42.2617 -78.3667 289° West 381 438 36,000  Level Cleveland Center
05:27PM 42.2975 -78.5003 290° West 381 438 36,000  Level Cleveland Center
05:28PM 42.3311 -78.6367 288° West 381 438 36,000  Level Cleveland Center
05:29PM 42.3647 -78.7706 289° West 381 438 36,000  Level Cleveland Center
05:30PM 42.4022 -78.9131 290° West 381 438 36,000  Level Cleveland Center
05:31PM 42.4353 -79.0472 289° West 381 438 36,000  Level Cleveland Center
05:32PM 42.4683 -79.1703 290° West 383 441 36,000  Level Cleveland Center
05:33PM 42.4928 -79.3047 284° West 376 433 36,000  Level Cleveland Center
05:34PM 42.5025 -79.4456 275° West 376 433 36,000  Level Cleveland Center
05:35PM 42.5081 -79.5861 273° West 370 426 36,000  Level Cleveland Center
05:36PM 42.5153 -79.7242 274° West 370 426 36,000  Level Cleveland Center
05:37PM 42.5206 -79.8592 273° West 365 420 36,000  Level Cleveland Center
05:38PM 42.5233 -79.9917 272° West 360 414 36,000  Level Cleveland Center
05:39PM 42.5303 -80.1267 274° West 360 414 36,000  Level Cleveland Center
05:40PM 42.5369 -80.2703 274° West 366 421 36,000  Level Cleveland Center
05:41PM 42.5433 -80.4056 274° West 355 409 36,000  Level Cleveland Center
05:42PM 42.5456 -80.5325 271° West 350 403 36,000  Level Cleveland Center
05:43PM 42.5539 -80.6650 275° West 350 403 36,000  Level Cleveland Center
05:44PM 42.5581 -80.7917 273° West 338 389 36,000  Level Cleveland Center
05:45PM 42.5639 -80.9272 273° West 349 402 36,000  Level Cleveland Center
05:46PM 42.5675 -81.0539 272° West 349 402 36,000  Level Cleveland Center
05:47PM 42.5733 -81.1864 273° West 349 402 36,000  Level Cleveland Center
05:48PM 42.5767 -81.3161 272° West 349 402 36,000  Level Cleveland Center
05:49PM 42.5842 -81.4489 274° West 349 402 36,000  Level Cleveland Center
05:50PM 42.6039 -81.5761 282° West 349 402 36,000  Level Cleveland Center
05:51PM 42.6278 -81.7064 284° West 354 407 36,000  Level Cleveland Center
05:52PM 42.6472 -81.8308 282° West 354 407 36,000  Level Cleveland Center
05:53PM 42.6708 -81.9611 284° West 354 407 36,000  Level Cleveland Center
05:54PM 42.6942 -82.0861 284° West 354 407 36,000  Level Cleveland Center
05:55PM 42.7175 -82.2167 284° West 354 407 36,000  Level Cleveland Center
05:56PM 42.7383 -82.3472 282° West 354 407 36,000  Level Cleveland Center
05:57PM 42.7594 -82.4750 283° West 354 407 36,000  Level Cleveland Center
05:58PM 42.7822 -82.6058 283° West 354 407 36,000  Level Cleveland Center
05:59PM 42.8028 -82.7339 282° West 354 407 36,000  Level Cleveland Center
06:00PM 42.8253 -82.8647 283° West 354 407 36,000 -240 Level Cleveland Center
06:01PM 42.8456 -82.9958 282° West 354 407 35,600 -780 Descending Cleveland Center
06:02PM 42.8656 -83.1297 282° West 359 413 34,500 -1,140 Descending Cleveland Center
06:03PM 42.8875 -83.2611 283° West 359 413 33,400 -1,140 Descending Cleveland Center
06:04PM 42.9094 -83.3925 283° West 359 413 32,300 -1,140 Descending Cleveland Center
06:05PM 42.9292 -83.5239 282° West 359 413 31,200 -1,140 Descending Cleveland Center
06:06PM 42.9489 -83.6494 282° West 359 413 30,100 -600 Descending Cleveland Center
06:07PM 42.9578 -83.7806 275° West 359 413 30,000 -60 Descending Cleveland Center
06:08PM 42.9497 -83.9133 265° West 353 406 30,000  Level Cleveland Center
06:09PM 42.9461 -84.0436 268° West 347 399 30,000  Level Cleveland Center
06:11PM 42.9164 -84.3181 262° West 358 412 30,000  Level Chicago Center
06:12PM 42.8994 -84.4553 260° West 367 422 30,000  Level Chicago Center
06:13PM 42.8831 -84.5936 261° West 370 426 30,000  Level Chicago Center
06:15PM 42.8517 -84.9019 262° West 374 430 30,000  Level Chicago Center
06:16PM 42.8361 -85.0411 261° West 373 429 30,000  Level Chicago Center
06:17PM 42.8222 -85.1831 262° West 377 434 30,000  Level Chicago Center
06:18PM 42.8056 -85.3239 261° West 378 435 30,000  Level Chicago Center
06:19PM 42.7908 -85.4642 262° West 375 432 30,000 -600 Level Chicago Center
06:20PM 42.7669 -85.6047 257° West 378 435 28,800 -1,500 Descending Chicago Center
06:21PM 42.7414 -85.7478 256° West 383 441 26,900 -2,160 Descending Chicago Center
06:22PM 42.7100 -85.9181 256° West 385 443 24,400 -2,220 Descending Chicago Center
06:23PM 42.6853 -86.0586 257° West 383 441 22,400 -1,920 Descending Chicago Center
06:24PM 42.6617 -86.1903 256° West 367 422 20,500 -1,200 Descending Chicago Center
06:25PM 42.6367 -86.3175 255° West 352 405 20,000 -300 Descending Chicago Center
06:26PM 42.6119 -86.4494 256° West 358 412 20,000  Level Chicago Center
06:27PM 42.5869 -86.5842 256° West 366 421 20,000 -720 Level Chicago Center
06:28PM 42.5583 -86.7422 256° West 361 415 18,600 -1,500 Descending Chicago Center
06:29PM 42.5261 -86.8581 249° West 341 392 16,900 -1,920 Descending Chicago Center
06:30PM 42.4947 -86.9728 250° West 325 374 14,700 -2,220 Descending Chicago Center
06:31PM 42.4622 -87.0861 249° West 322 371 12,400 -2,100 Descending Chicago Center
06:32PM 42.4317 -87.2003 250° West 323 372 10,400 -1,260 Descending Chicago Center
06:33PM 42.3994 -87.3147 249° West 326 375 9,900 -300 Descending Chicago Center
06:34PM 42.3636 -87.4436 249° West 318 366 9,900  Level Chicago Center
06:35PM 42.3242 -87.5483 243° Southwest 322 371 10,000  Climbing Chicago Center
06:36PM 42.2531 -87.6258 219° Southwest 324 373 9,900  Descending Chicago Center
06:38PM 42.1819 -87.7011 218° Southwest 325 374 10,000 -300 Climbing Chicago Center
06:38PM 42.1167 -87.7667 217° Southwest 263 303 9,400 -1,260 Descending Chicago TRACON
06:40PM 42.0833 -87.8667 246° West 257 296 7,500 -1,200 Descending Chicago TRACON
06:40PM 42.0667 -87.9500 255° West 241 277 7,100 -480 Descending Chicago TRACON
06:41PM 42.0667 -88.0167 270° West 210 242 6,700 -900 Descending Chicago TRACON
06:42PM 42.0500 -88.1000 255° West 218 251 5,400 -1,260 Descending Chicago TRACON
06:44PM 42.0167 -88.1667 236° Southwest 243 280 4,100 -960 Descending Chicago TRACON
06:44PM 41.9833 -88.1333 143° Southeast 222 255 3,500 -780 Descending Chicago TRACON
06:46PM 41.9667 -88.0500 105° East 195 224 2,600 -840 Descending Chicago TRACON